createdAt,value
2017-06-09T00:00:02.795Z,0
2017-06-09T00:05:03.383Z,0
2017-06-09T00:10:02.821Z,0
2017-06-09T00:15:03.250Z,0
2017-06-09T00:20:02.584Z,0
2017-06-09T00:25:03.006Z,0
2017-06-09T00:30:03.303Z,0
2017-06-09T00:35:02.676Z,0
2017-06-09T00:40:02.911Z,0
2017-06-09T00:45:03.373Z,0
2017-06-09T00:50:02.748Z,0
2017-06-09T00:55:03.044Z,0
2017-06-09T01:00:03.464Z,0
2017-06-09T01:05:02.746Z,0
2017-06-09T01:10:03.193Z,1
2017-06-09T01:15:02.555Z,0
2017-06-09T01:20:02.979Z,0
2017-06-09T01:25:03.307Z,2
2017-06-09T01:30:02.719Z,1
2017-06-09T01:35:03.129Z,3
2017-06-09T01:40:02.518Z,0
2017-06-09T01:45:02.888Z,1
2017-06-09T01:50:03.196Z,1
2017-06-09T01:55:02.491Z,1
2017-06-09T02:00:02.854Z,0
2017-06-09T02:05:03.259Z,0
2017-06-09T02:10:02.658Z,0
2017-06-09T02:15:03.135Z,0
2017-06-09T02:20:03.456Z,0
2017-06-09T02:25:02.759Z,0
2017-06-09T02:30:03.184Z,0
2017-06-09T02:35:02.485Z,1
2017-06-09T02:40:02.905Z,0
2017-06-09T02:45:03.222Z,1
2017-06-09T02:50:02.663Z,0
2017-06-09T02:55:03.035Z,0
2017-06-09T03:00:03.391Z,0
2017-06-09T03:05:02.807Z,0
2017-06-09T03:10:03.186Z,0
2017-06-09T03:15:02.634Z,0
2017-06-09T03:20:02.988Z,0
2017-06-09T03:25:03.522Z,0
2017-06-09T03:30:02.866Z,2
2017-06-09T03:35:03.162Z,0
2017-06-09T03:40:02.681Z,3
2017-06-09T03:45:03.244Z,2
2017-06-09T03:50:02.573Z,0
2017-06-09T03:55:03.122Z,0
2017-06-09T04:00:03.331Z,0
2017-06-09T04:05:02.702Z,0
2017-06-09T04:10:03.412Z,0
2017-06-09T04:15:02.785Z,0
2017-06-09T04:20:03.321Z,2
2017-06-09T04:25:02.723Z,0
2017-06-09T04:30:03.276Z,0
2017-06-09T04:35:02.744Z,0
2017-06-09T04:40:03.252Z,2
2017-06-09T04:45:02.631Z,3
2017-06-09T04:50:03.000Z,2
2017-06-09T04:55:03.470Z,0
2017-06-09T05:00:02.725Z,0
2017-06-09T05:05:03.141Z,0
2017-06-09T05:10:02.624Z,0
2017-06-09T05:15:03.117Z,0
2017-06-09T05:20:03.530Z,0
2017-06-09T05:25:02.812Z,1
2017-06-09T05:30:03.284Z,0
2017-06-09T05:35:02.577Z,0
2017-06-09T05:40:03.098Z,2
2017-06-09T05:45:02.633Z,1
2017-06-09T05:50:03.067Z,3
2017-06-09T05:55:03.496Z,2
2017-06-09T06:00:02.858Z,0
2017-06-09T06:05:03.270Z,0
2017-06-09T06:10:02.639Z,1
2017-06-09T06:15:03.148Z,3
2017-06-09T06:20:02.754Z,3
2017-06-09T06:25:03.179Z,4
2017-06-09T06:30:02.634Z,6
2017-06-09T06:35:03.038Z,6
2017-06-09T06:40:02.657Z,4
2017-06-09T06:45:03.084Z,2
2017-06-09T06:50:02.512Z,2
2017-06-09T06:55:02.877Z,6
2017-06-09T07:00:03.355Z,5
2017-06-09T07:05:02.695Z,5
2017-06-09T07:10:03.333Z,2
2017-06-09T07:15:02.694Z,5
2017-06-09T07:20:03.179Z,8
2017-06-09T07:25:02.664Z,5
2017-06-09T07:30:03.006Z,5
2017-06-09T07:35:03.433Z,10
2017-06-09T07:40:02.890Z,10
2017-06-09T07:45:03.224Z,5
2017-06-09T07:50:02.696Z,4
2017-06-09T07:55:02.982Z,3
2017-06-09T08:00:03.407Z,5
2017-06-09T08:05:02.698Z,4
2017-06-09T08:10:03.277Z,3
2017-06-09T08:15:02.636Z,2
2017-06-09T08:20:03.095Z,4
2017-06-09T08:25:03.460Z,2
2017-06-09T08:30:02.791Z,3
2017-06-09T08:35:03.111Z,3
2017-06-09T08:40:02.627Z,0
2017-06-09T08:45:02.905Z,3
2017-06-09T08:50:03.210Z,3
2017-06-09T08:55:02.536Z,3
2017-06-09T09:00:02.912Z,1
2017-06-09T09:05:03.294Z,2
2017-06-09T09:10:02.772Z,2
2017-06-09T09:15:03.294Z,5
2017-06-09T09:20:02.744Z,2
2017-06-09T09:25:03.246Z,2
2017-06-09T09:30:02.689Z,3
2017-06-09T09:35:03.050Z,2
2017-06-09T09:40:02.613Z,3
2017-06-09T09:45:03.025Z,4
2017-06-09T09:50:03.355Z,3
2017-06-09T09:55:02.759Z,4
2017-06-09T10:00:03.095Z,4
2017-06-09T10:05:02.677Z,7
2017-06-09T10:10:03.350Z,5
2017-06-09T10:15:03.032Z,8
2017-06-09T10:20:03.427Z,7
2017-06-09T10:25:02.741Z,6
2017-06-09T10:30:03.124Z,6
2017-06-09T10:35:03.177Z,5
2017-06-09T10:40:03.055Z,5
2017-06-09T10:45:02.797Z,3
2017-06-09T10:50:03.208Z,7
2017-06-09T10:55:02.953Z,7
2017-06-09T11:00:02.662Z,9
2017-06-09T11:05:03.467Z,8
2017-06-09T11:10:03.403Z,8
2017-06-09T11:15:02.950Z,7
2017-06-09T11:20:03.023Z,8
2017-06-09T11:25:03.042Z,8
2017-06-09T11:30:02.609Z,5
2017-06-09T11:35:03.231Z,7
2017-06-09T11:40:02.883Z,5
2017-06-09T11:45:03.344Z,7
2017-06-09T11:50:02.977Z,7
2017-06-09T11:55:02.748Z,4
2017-06-09T12:00:02.812Z,6
2017-06-09T12:05:02.587Z,6
2017-06-09T12:10:03.105Z,8
2017-06-09T12:15:03.402Z,4
2017-06-09T12:20:02.918Z,7
2017-06-09T12:25:03.289Z,8
2017-06-09T12:30:03.526Z,8
2017-06-09T12:35:03.230Z,4
2017-06-09T12:40:02.936Z,6
2017-06-09T12:45:03.345Z,9
2017-06-09T12:50:02.655Z,8
2017-06-09T12:55:02.841Z,9
2017-06-09T13:00:02.578Z,6
2017-06-09T13:05:03.600Z,7
2017-06-09T13:10:02.597Z,3
2017-06-09T13:15:03.346Z,4
2017-06-09T13:20:02.507Z,5
2017-06-09T13:25:03.192Z,11
2017-06-09T13:30:03.228Z,7
2017-06-09T13:35:03.365Z,9
2017-06-09T13:40:03.461Z,7
2017-06-09T13:45:02.665Z,6
2017-06-09T13:50:03.030Z,9
2017-06-09T13:55:02.698Z,6
2017-06-09T14:00:02.817Z,9
2017-06-09T14:05:03.417Z,9
2017-06-09T14:10:02.732Z,3
2017-06-09T14:15:02.821Z,7
2017-06-09T14:20:03.093Z,7
2017-06-09T14:25:03.309Z,8
2017-06-09T14:30:03.426Z,8
2017-06-09T14:35:02.982Z,7
2017-06-09T14:40:02.488Z,10
2017-06-09T14:45:02.760Z,10
2017-06-09T14:50:03.125Z,10
2017-06-09T14:55:03.287Z,7
2017-06-09T15:00:02.672Z,9
2017-06-09T15:05:02.531Z,5
2017-06-09T15:10:03.240Z,9
2017-06-09T15:15:03.346Z,7
2017-06-09T15:20:02.644Z,8
2017-06-09T15:25:03.430Z,9
2017-06-09T15:30:02.532Z,12
2017-06-09T15:35:02.881Z,10
2017-06-09T15:40:02.979Z,16
2017-06-09T15:45:03.001Z,11
2017-06-09T15:50:03.332Z,6
2017-06-09T15:55:03.024Z,9
2017-06-09T16:00:03.139Z,13
2017-06-09T16:05:02.574Z,10
2017-06-09T16:10:02.988Z,14
2017-06-09T16:15:03.218Z,13
2017-06-09T16:20:02.458Z,10
2017-06-09T16:25:02.710Z,10
2017-06-09T16:30:02.617Z,7
2017-06-09T16:35:02.721Z,10
2017-06-09T16:40:02.777Z,8
2017-06-09T16:45:03.158Z,11
2017-06-09T16:50:02.932Z,5
2017-06-09T16:55:02.712Z,8
2017-06-09T17:00:03.215Z,5
2017-06-09T17:05:02.680Z,9
2017-06-09T17:10:03.350Z,7
2017-06-09T17:15:02.744Z,8
2017-06-09T17:20:03.337Z,9
2017-06-09T17:25:02.743Z,9
2017-06-09T17:30:03.356Z,8
2017-06-09T17:35:02.959Z,8
2017-06-09T17:40:02.805Z,7
2017-06-09T17:45:02.569Z,8
2017-06-09T17:50:03.246Z,6
2017-06-09T17:55:02.836Z,4
2017-06-09T18:00:02.606Z,9
2017-06-09T18:05:03.019Z,7
2017-06-09T18:10:02.848Z,7
2017-06-09T18:15:03.321Z,5
2017-06-09T18:20:02.545Z,5
2017-06-09T18:25:02.723Z,10
2017-06-09T18:30:02.894Z,9
2017-06-09T18:35:02.919Z,6
2017-06-09T18:40:03.130Z,7
2017-06-09T18:45:02.493Z,8
2017-06-09T18:50:02.532Z,3
2017-06-09T18:55:03.254Z,7
2017-06-09T19:00:03.015Z,8
2017-06-09T19:05:03.031Z,4
2017-06-09T19:10:03.287Z,7
2017-06-09T19:15:02.771Z,6
2017-06-09T19:20:02.892Z,5
2017-06-09T19:25:03.343Z,2
2017-06-09T19:30:02.870Z,4
2017-06-09T19:35:03.369Z,0
2017-06-09T19:40:03.420Z,0
2017-06-09T19:45:02.692Z,2
2017-06-09T19:50:03.142Z,0
2017-06-09T19:55:02.633Z,0
2017-06-09T20:00:02.782Z,3
2017-06-09T20:05:02.695Z,3
2017-06-09T20:10:03.044Z,3
2017-06-09T20:15:03.460Z,0
2017-06-09T20:20:03.085Z,2
2017-06-09T20:25:02.625Z,0
2017-06-09T20:30:02.767Z,0
2017-06-09T20:35:02.645Z,0
2017-06-09T20:40:02.941Z,0
2017-06-09T20:45:02.984Z,0
2017-06-09T20:50:03.081Z,0
2017-06-09T20:55:02.633Z,0
2017-06-09T21:00:03.126Z,0
2017-06-09T21:05:03.085Z,0
2017-06-09T21:10:03.028Z,1
2017-06-09T21:15:03.327Z,0
2017-06-09T21:20:02.972Z,0
2017-06-09T21:25:02.481Z,0
2017-06-09T21:30:02.872Z,0
2017-06-09T21:35:03.280Z,0
2017-06-09T21:40:02.748Z,0
2017-06-09T21:45:03.080Z,0
2017-06-09T21:50:03.373Z,0
2017-06-09T21:55:02.733Z,0
2017-06-09T22:00:05.216Z,0
2017-06-09T22:05:02.733Z,0
2017-06-09T22:10:03.205Z,0
2017-06-09T22:15:02.452Z,0
2017-06-09T22:20:02.816Z,0
2017-06-09T22:25:03.120Z,0
2017-06-09T22:30:03.421Z,0
2017-06-09T22:35:02.764Z,0
2017-06-09T22:40:03.326Z,0
2017-06-09T22:45:02.738Z,0
2017-06-09T22:50:03.133Z,1
2017-06-09T22:55:03.429Z,2
2017-06-09T23:00:02.841Z,0
2017-06-09T23:05:02.509Z,0
2017-06-09T23:10:03.121Z,0
2017-06-09T23:15:02.477Z,0
2017-06-09T23:20:02.771Z,1
2017-06-09T23:25:03.354Z,0
2017-06-09T23:30:02.815Z,0
2017-06-09T23:35:03.167Z,0
2017-06-09T23:40:02.691Z,1
2017-06-09T23:45:03.113Z,0
2017-06-09T23:50:02.559Z,0
2017-06-09T23:55:02.949Z,0
